createdAt,value
2023-05-12T00:01:48.318Z,4.80
2023-05-12T00:04:15.850Z,6.03
2023-05-12T00:06:43.366Z,4.95
2023-05-12T00:09:11.061Z,4.70
2023-05-12T00:11:38.919Z,2.90
2023-05-12T00:14:07.338Z,2.47
2023-05-12T00:16:34.997Z,3.25
2023-05-12T00:19:02.965Z,3.60
2023-05-12T00:21:30.566Z,1.85
2023-05-12T00:23:58.185Z,5.47
2023-05-12T00:26:26.068Z,3.05
2023-05-12T00:28:53.730Z,2.65
2023-05-12T00:31:21.662Z,3.60
2023-05-12T00:33:49.362Z,2.67
2023-05-12T00:36:16.783Z,10.88
2023-05-12T00:38:44.551Z,2.08
2023-05-12T00:41:12.397Z,2.80
2023-05-12T00:43:40.145Z,9.95
2023-05-12T00:46:08.639Z,4.85
2023-05-12T00:48:37.031Z,3.47
2023-05-12T00:51:06.625Z,2.50
2023-05-12T00:53:45.416Z,4.82
2023-05-12T00:56:17.132Z,4.10
2023-05-12T00:58:45.270Z,1.80
2023-05-12T01:01:13.824Z,3.20
2023-05-12T01:03:41.776Z,8.25
2023-05-12T01:06:46.526Z,2.58
2023-05-12T01:09:15.702Z,2.87
2023-05-12T01:11:43.493Z,2.70
2023-05-12T01:14:11.451Z,1.92
2023-05-12T01:16:52.273Z,2.80
2023-05-12T01:19:48.086Z,1.80
2023-05-12T01:22:17.738Z,4.05
2023-05-12T01:25:09.113Z,2.65
2023-05-12T01:27:40.301Z,3.22
2023-05-12T01:30:10.867Z,4.38
2023-05-12T01:32:40.677Z,2.15
2023-05-12T01:35:09.099Z,2.60
2023-05-12T01:37:39.372Z,2.50
2023-05-12T01:40:08.281Z,5.60
2023-05-12T01:42:36.253Z,5.57
2023-05-12T01:45:04.178Z,2.30
2023-05-12T01:47:32.807Z,4.43
2023-05-12T01:50:07.771Z,1.63
2023-05-12T01:52:35.680Z,1.60
2023-05-12T01:55:07.669Z,3.17
2023-05-12T01:57:41.153Z,4.50
2023-05-12T02:00:09.950Z,3.38
2023-05-12T02:02:43.655Z,3.35
2023-05-12T02:05:13.347Z,3.97
2023-05-12T02:07:43.207Z,2.40
2023-05-12T02:10:11.914Z,2.03
2023-05-12T02:12:39.708Z,2.33
2023-05-12T02:15:07.876Z,1.98
2023-05-12T02:17:38.542Z,3.20
2023-05-12T02:20:08.626Z,1.98
2023-05-12T02:22:36.462Z,5.32
2023-05-12T02:25:04.837Z,1.58
2023-05-12T02:27:32.962Z,2.63
2023-05-12T02:30:01.187Z,3.00
2023-05-12T02:32:30.221Z,2.30
2023-05-12T02:34:57.887Z,4.63
2023-05-12T02:37:25.946Z,1.70
2023-05-12T02:39:54.281Z,1.83
2023-05-12T02:42:22.013Z,2.00
2023-05-12T02:44:49.994Z,3.55
2023-05-12T02:47:17.821Z,1.90
2023-05-12T02:49:45.391Z,4.07
2023-05-12T02:52:13.868Z,2.38
2023-05-12T02:54:41.995Z,2.15
2023-05-12T02:57:11.219Z,2.72
2023-05-12T02:59:38.896Z,2.53
2023-05-12T03:02:06.796Z,2.17
2023-05-12T03:04:34.629Z,2.97
2023-05-12T03:07:04.002Z,2.30
2023-05-12T03:09:32.257Z,1.60
2023-05-12T03:12:00.139Z,2.47
2023-05-12T03:14:29.072Z,5.03
2023-05-12T03:19:39.888Z,2.72
2023-05-12T03:22:07.730Z,3.22
2023-05-12T03:24:36.936Z,3.15
2023-05-12T03:27:05.896Z,2.00
2023-05-12T03:29:33.359Z,2.30
2023-05-12T03:32:01.284Z,1.77
2023-05-12T03:34:29.160Z,2.47
2023-05-12T03:36:59.220Z,3.15
2023-05-12T03:39:27.063Z,1.55
2023-05-12T03:41:55.622Z,4.95
2023-05-12T03:44:23.159Z,2.80
2023-05-12T03:46:51.115Z,2.20
2023-05-12T03:49:18.856Z,1.95
2023-05-12T03:51:46.751Z,5.18
2023-05-12T03:54:14.484Z,9.68
2023-05-12T03:56:43.064Z,4.78
2023-05-12T03:59:12.304Z,4.43
2023-05-12T04:02:05.768Z,2.50
2023-05-12T04:04:58.756Z,4.82
2023-05-12T04:07:26.752Z,4.22
2023-05-12T04:09:54.672Z,3.53
2023-05-12T04:12:22.418Z,2.63
2023-05-12T04:14:50.686Z,5.93
2023-05-12T04:17:19.521Z,6.38
2023-05-12T04:19:47.277Z,5.00
2023-05-12T04:22:15.047Z,5.15
2023-05-12T04:24:42.692Z,5.00
2023-05-12T04:27:10.623Z,4.25
2023-05-12T04:29:38.602Z,6.15
2023-05-12T04:32:07.163Z,4.53
2023-05-12T04:34:36.212Z,3.90
2023-05-12T04:37:03.884Z,3.90
2023-05-12T04:39:31.636Z,2.72
2023-05-12T04:42:02.401Z,8.00
2023-05-12T04:44:33.025Z,9.38
2023-05-12T04:47:01.342Z,5.78
2023-05-12T04:49:31.220Z,7.05
2023-05-12T04:51:58.967Z,4.15
2023-05-12T04:54:26.779Z,8.80
2023-05-12T04:56:54.630Z,5.10
2023-05-12T04:59:22.996Z,6.75
2023-05-12T05:01:52.731Z,6.15
2023-05-12T05:04:21.023Z,5.97
2023-05-12T05:06:48.564Z,3.72
2023-05-12T05:09:16.276Z,3.92
2023-05-12T05:11:44.671Z,6.78
2023-05-12T05:14:13.294Z,7.00
2023-05-12T05:16:40.997Z,2.55
2023-05-12T05:19:19.982Z,8.90
2023-05-12T05:21:53.927Z,3.70
2023-05-12T05:24:21.896Z,4.07
2023-05-12T05:26:50.167Z,12.98
2023-05-12T05:29:18.340Z,3.88
2023-05-12T05:31:46.127Z,2.72
2023-05-12T05:34:15.022Z,6.07
2023-05-12T05:36:42.877Z,6.88
2023-05-12T05:39:11.361Z,5.55
2023-05-12T05:41:38.990Z,4.75
2023-05-12T05:44:07.006Z,2.70
2023-05-12T05:46:34.934Z,5.90
2023-05-12T05:49:02.745Z,5.90
2023-05-12T05:51:31.972Z,3.65
2023-05-12T05:54:00.550Z,4.22
2023-05-12T05:56:33.053Z,4.30
2023-05-12T05:59:03.294Z,7.32
2023-05-12T06:01:32.676Z,3.55
2023-05-12T06:04:01.203Z,8.32
2023-05-12T06:06:29.994Z,5.70
2023-05-12T06:08:57.762Z,5.20
2023-05-12T06:11:25.918Z,9.13
2023-05-12T06:13:53.654Z,9.35
2023-05-12T06:16:21.966Z,12.20
2023-05-12T06:18:49.999Z,15.02
2023-05-12T06:21:17.789Z,11.00
2023-05-12T06:23:47.200Z,13.90
2023-05-12T06:26:15.201Z,8.88
2023-05-12T06:28:43.122Z,16.33
2023-05-12T06:31:10.465Z,13.15
2023-05-12T06:33:37.954Z,14.27
2023-05-12T06:36:06.246Z,12.25
2023-05-12T06:38:34.479Z,10.75
2023-05-12T06:41:02.132Z,8.68
2023-05-12T06:43:29.778Z,6.97
2023-05-12T06:45:57.367Z,11.55
2023-05-12T06:48:24.930Z,13.70
2023-05-12T06:50:56.137Z,7.05
2023-05-12T06:53:28.908Z,16.48
2023-05-12T06:55:56.764Z,21.10
2023-05-12T06:58:24.643Z,12.48
2023-05-12T07:00:57.719Z,26.33
2023-05-12T07:03:25.638Z,18.85
2023-05-12T07:05:53.236Z,18.80
2023-05-12T07:08:21.085Z,19.42
2023-05-12T07:10:49.143Z,22.60
2023-05-12T07:13:16.911Z,11.60
2023-05-12T07:15:44.589Z,14.82
2023-05-12T07:18:12.259Z,19.30
2023-05-12T07:20:40.128Z,16.77
2023-05-12T07:23:08.125Z,14.32
2023-05-12T07:25:36.155Z,15.02
2023-05-12T07:28:04.307Z,14.75
2023-05-12T07:30:32.224Z,10.18
2023-05-12T07:33:01.549Z,10.57
2023-05-12T07:35:29.500Z,13.23
2023-05-12T07:37:57.545Z,6.88
2023-05-12T07:40:25.388Z,17.95
2023-05-12T07:42:54.177Z,13.52
2023-05-12T07:45:25.585Z,8.93
2023-05-12T07:47:53.561Z,13.30
2023-05-12T07:50:21.819Z,12.25
2023-05-12T07:52:51.926Z,17.73
2023-05-12T07:55:21.691Z,11.27
2023-05-12T07:57:52.967Z,15.02
2023-05-12T08:00:21.142Z,6.30
2023-05-12T08:02:49.291Z,11.05
2023-05-12T08:05:17.543Z,12.63
2023-05-12T08:07:45.696Z,14.77
2023-05-12T08:10:14.323Z,7.63
2023-05-12T08:12:42.947Z,10.90
2023-05-12T08:15:11.439Z,15.98
2023-05-12T08:17:39.625Z,8.57
2023-05-12T08:20:09.406Z,18.40
2023-05-12T08:22:37.568Z,12.13
2023-05-12T08:25:06.366Z,11.75
2023-05-12T08:27:34.576Z,9.73
2023-05-12T08:30:03.110Z,9.25
2023-05-12T08:32:31.088Z,11.85
2023-05-12T08:34:58.826Z,12.73
2023-05-12T08:37:27.655Z,10.27
2023-05-12T08:39:55.858Z,6.65
2023-05-12T08:42:44.897Z,8.65
2023-05-12T08:45:12.994Z,8.63
2023-05-12T08:47:43.202Z,11.77
2023-05-12T08:50:12.189Z,10.15
2023-05-12T08:52:40.493Z,14.70
2023-05-12T08:55:09.917Z,4.45
2023-05-12T08:57:45.872Z,7.55
2023-05-12T09:00:14.210Z,11.30
2023-05-12T09:02:53.301Z,7.07
2023-05-12T09:05:23.594Z,23.42
2023-05-12T09:07:55.687Z,14.40
2023-05-12T09:13:04.611Z,15.63
2023-05-12T09:15:39.604Z,9.98
2023-05-12T09:18:07.439Z,7.43
2023-05-12T09:20:35.752Z,10.18
2023-05-12T09:23:22.258Z,10.50
2023-05-12T09:26:04.278Z,10.02
2023-05-12T09:28:39.428Z,11.70
2023-05-12T09:31:21.441Z,7.68
2023-05-12T09:33:51.135Z,9.73
2023-05-12T09:36:23.104Z,21.23
2023-05-12T09:39:20.141Z,16.25
2023-05-12T09:41:52.176Z,13.95
2023-05-12T09:44:20.127Z,5.85
2023-05-12T09:46:48.625Z,8.00
2023-05-12T09:49:28.428Z,8.13
2023-05-12T09:52:00.586Z,11.25
2023-05-12T09:54:33.645Z,7.35
2023-05-12T09:57:05.504Z,12.63
2023-05-12T09:59:40.000Z,9.50
2023-05-12T10:02:10.447Z,7.32
2023-05-12T10:04:51.272Z,13.13
2023-05-12T10:07:24.183Z,12.68
2023-05-12T10:09:53.028Z,6.53
2023-05-12T10:12:20.565Z,10.60
2023-05-12T10:14:49.542Z,6.72
2023-05-12T10:17:19.889Z,6.68
2023-05-12T10:19:49.621Z,7.55
2023-05-12T10:22:20.126Z,10.98
2023-05-12T10:24:49.759Z,14.20
2023-05-12T10:27:17.421Z,9.02
2023-05-12T10:29:47.133Z,16.23
2023-05-12T10:32:15.116Z,11.57
2023-05-12T10:34:43.622Z,13.95
2023-05-12T10:37:12.440Z,14.18
2023-05-12T10:39:53.208Z,14.32
2023-05-12T10:42:26.272Z,9.95
2023-05-12T10:44:56.873Z,10.40
2023-05-12T10:47:29.765Z,14.68
2023-05-12T10:50:01.242Z,12.07
2023-05-12T10:52:29.173Z,10.57
2023-05-12T10:55:05.032Z,14.57
2023-05-12T10:57:33.573Z,21.25
2023-05-12T11:00:04.006Z,16.00
2023-05-12T11:02:36.405Z,19.67
2023-05-12T11:05:17.367Z,15.50
2023-05-12T11:07:50.524Z,26.23
2023-05-12T11:10:20.044Z,12.70
2023-05-12T11:12:50.071Z,16.13
2023-05-12T11:15:18.368Z,14.10
2023-05-12T11:17:49.115Z,17.42
2023-05-12T11:20:28.841Z,17.52
2023-05-12T11:22:58.181Z,20.83
2023-05-12T11:25:29.119Z,19.85
2023-05-12T11:27:57.143Z,13.93
2023-05-12T11:30:24.994Z,17.67
2023-05-12T11:33:03.596Z,30.05
2023-05-12T11:35:32.981Z,15.40
2023-05-12T11:38:00.794Z,15.05
2023-05-12T11:40:28.954Z,13.77
2023-05-12T11:42:56.846Z,17.30
2023-05-12T11:45:30.267Z,13.93
2023-05-12T11:48:14.324Z,13.32
2023-05-12T11:50:49.382Z,11.88
2023-05-12T11:53:19.477Z,12.73
2023-05-12T11:55:56.605Z,10.48
2023-05-12T11:58:30.722Z,16.65
2023-05-12T12:01:13.155Z,18.08
2023-05-12T12:03:50.359Z,6.72
2023-05-12T12:06:19.597Z,9.07
2023-05-12T12:09:02.820Z,13.48
2023-05-12T12:11:35.303Z,7.65
2023-05-12T12:14:02.978Z,11.15
2023-05-12T12:16:32.361Z,14.80
2023-05-12T12:19:00.712Z,13.15
2023-05-12T12:21:28.842Z,11.00
2023-05-12T12:23:56.392Z,15.15
2023-05-12T12:26:24.440Z,14.93
2023-05-12T12:28:52.518Z,8.75
2023-05-12T12:31:20.553Z,12.13
2023-05-12T12:33:48.142Z,10.73
2023-05-12T12:36:15.633Z,8.70
2023-05-12T12:38:44.074Z,8.18
2023-05-12T12:41:11.985Z,11.98
2023-05-12T12:43:39.541Z,9.85
2023-05-12T12:46:07.845Z,10.13
2023-05-12T12:48:35.860Z,11.18
2023-05-12T12:51:04.213Z,8.23
2023-05-12T12:53:32.419Z,10.02
2023-05-12T12:56:00.796Z,13.27
2023-05-12T12:58:28.468Z,10.98
2023-05-12T13:00:56.758Z,12.25
2023-05-12T13:03:25.294Z,6.68
2023-05-12T13:05:53.086Z,9.80
2023-05-12T13:08:21.325Z,8.25
2023-05-12T13:10:48.984Z,8.82
2023-05-12T13:13:17.092Z,8.27
2023-05-12T13:15:44.641Z,7.88
2023-05-12T13:18:12.692Z,5.43
2023-05-12T13:20:41.273Z,7.68
2023-05-12T13:23:08.883Z,5.60
2023-05-12T13:25:36.891Z,10.95
2023-05-12T13:28:05.794Z,9.40
2023-05-12T13:30:33.785Z,5.90
2023-05-12T13:33:03.229Z,7.28
2023-05-12T13:35:32.968Z,8.45
2023-05-12T13:38:00.913Z,8.15
2023-05-12T13:40:28.432Z,9.20
2023-05-12T13:42:55.903Z,8.73
2023-05-12T13:45:24.126Z,7.68
2023-05-12T13:47:52.165Z,7.93
2023-05-12T13:50:19.917Z,7.20
2023-05-12T13:52:48.176Z,10.45
2023-05-12T13:55:20.825Z,7.90
2023-05-12T13:57:49.954Z,6.60
2023-05-12T14:00:18.003Z,10.10
2023-05-12T14:02:45.748Z,6.10
2023-05-12T14:05:13.917Z,5.00
2023-05-12T14:07:42.857Z,6.40
2023-05-12T14:10:11.874Z,12.25
2023-05-12T14:12:41.293Z,6.53
2023-05-12T14:15:29.101Z,12.88
2023-05-12T14:17:58.734Z,10.43
2023-05-12T14:20:26.396Z,9.40
2023-05-12T14:22:54.567Z,11.40
2023-05-12T14:25:23.249Z,7.07
2023-05-12T14:27:51.248Z,5.35
2023-05-12T14:30:19.399Z,8.43
2023-05-12T14:32:47.505Z,9.27
2023-05-12T14:35:15.331Z,14.25
2023-05-12T14:37:43.147Z,14.02
2023-05-12T14:40:13.811Z,13.13
2023-05-12T14:42:42.657Z,11.35
2023-05-12T14:45:11.006Z,14.40
2023-05-12T14:47:38.959Z,10.93
2023-05-12T14:50:08.067Z,11.02
2023-05-12T14:52:39.188Z,15.07
2023-05-12T14:55:14.466Z,13.38
2023-05-12T14:57:43.391Z,9.65
2023-05-12T15:00:14.448Z,14.02
2023-05-12T15:02:44.648Z,9.02
2023-05-12T15:05:16.426Z,14.63
2023-05-12T15:07:44.544Z,11.13
2023-05-12T15:10:12.850Z,16.33
2023-05-12T15:12:40.741Z,14.68
2023-05-12T15:15:12.053Z,17.08
2023-05-12T15:17:40.221Z,13.13
2023-05-12T15:20:10.142Z,14.70
2023-05-12T15:22:38.146Z,15.60
2023-05-12T15:25:06.696Z,19.92
2023-05-12T15:27:34.852Z,16.25
2023-05-12T15:30:03.763Z,18.08
2023-05-12T15:32:31.833Z,13.55
2023-05-12T15:34:59.438Z,20.25
2023-05-12T15:37:27.069Z,20.65
2023-05-12T15:39:54.802Z,17.38
2023-05-12T15:42:26.583Z,23.45
2023-05-12T15:45:00.496Z,12.63
2023-05-12T15:47:28.172Z,12.57
2023-05-12T15:49:56.414Z,11.60
2023-05-12T15:52:25.094Z,12.20
2023-05-12T15:54:52.669Z,16.40
2023-05-12T15:57:20.423Z,14.10
2023-05-12T15:59:50.082Z,12.57
2023-05-12T16:02:17.927Z,19.75
2023-05-12T16:04:45.686Z,18.25
2023-05-12T16:07:13.344Z,16.13
2023-05-12T16:09:41.037Z,19.48
2023-05-12T16:12:09.464Z,15.68
2023-05-12T16:14:37.082Z,11.18
2023-05-12T16:17:05.186Z,20.00
2023-05-12T16:19:32.792Z,21.23
2023-05-12T16:22:00.444Z,15.25
2023-05-12T16:24:28.919Z,16.30
2023-05-12T16:26:57.071Z,27.42
2023-05-12T16:29:24.909Z,17.45
2023-05-12T16:31:52.525Z,23.75
2023-05-12T16:34:21.068Z,14.73
2023-05-12T16:36:49.146Z,11.55
2023-05-12T16:39:18.233Z,15.70
2023-05-12T16:41:45.965Z,15.00
2023-05-12T16:44:13.567Z,18.88
2023-05-12T16:46:41.787Z,16.35
2023-05-12T16:49:09.562Z,9.98
2023-05-12T16:51:37.120Z,11.32
2023-05-12T16:54:04.883Z,12.43
2023-05-12T16:56:32.659Z,9.35
2023-05-12T16:59:01.231Z,21.08
2023-05-12T17:01:31.915Z,11.45
2023-05-12T17:04:00.166Z,12.48
2023-05-12T17:06:28.592Z,16.42
2023-05-12T17:08:56.354Z,9.77
2023-05-12T17:11:25.031Z,10.93
2023-05-12T17:13:53.852Z,7.50
2023-05-12T17:16:21.475Z,10.63
2023-05-12T17:21:20.367Z,11.77
2023-05-12T17:23:48.642Z,8.60
2023-05-12T17:26:16.800Z,7.47
2023-05-12T17:28:44.688Z,16.25
2023-05-12T17:31:12.357Z,10.77
2023-05-12T17:33:39.948Z,9.00
2023-05-12T17:36:12.753Z,11.57
2023-05-12T17:38:41.693Z,6.72
2023-05-12T17:41:10.381Z,11.15
2023-05-12T17:43:37.834Z,10.38
2023-05-12T17:46:08.012Z,14.52
2023-05-12T17:48:35.791Z,10.25
2023-05-12T17:51:04.223Z,7.10
2023-05-12T17:53:34.208Z,9.68
2023-05-12T17:56:05.172Z,9.48
2023-05-12T17:58:32.823Z,12.93
2023-05-12T18:01:00.755Z,10.18
2023-05-12T18:03:28.835Z,8.02
2023-05-12T18:05:56.789Z,8.35
2023-05-12T18:08:24.643Z,12.23
2023-05-12T18:10:52.551Z,8.30
2023-05-12T18:13:20.190Z,16.67
2023-05-12T18:15:50.426Z,12.05
2023-05-12T18:18:18.336Z,12.77
2023-05-12T18:20:46.295Z,8.23
2023-05-12T18:23:14.194Z,15.95
2023-05-12T18:25:43.340Z,14.30
2023-05-12T18:28:11.767Z,11.43
2023-05-12T18:30:39.840Z,12.35
2023-05-12T18:33:07.759Z,7.60
2023-05-12T18:35:35.413Z,10.10
2023-05-12T18:38:03.189Z,7.80
2023-05-12T18:40:30.915Z,14.43
2023-05-12T18:42:58.858Z,10.90
2023-05-12T18:45:26.378Z,7.00
2023-05-12T18:47:53.933Z,11.68
2023-05-12T18:50:21.801Z,14.27
2023-05-12T18:52:49.607Z,16.27
2023-05-12T18:55:17.286Z,20.60
2023-05-12T18:57:44.867Z,18.00
2023-05-12T19:00:13.281Z,31.90
2023-05-12T19:02:42.648Z,36.50
2023-05-12T19:05:10.509Z,36.28
2023-05-12T19:07:38.278Z,32.33
2023-05-12T19:10:06.768Z,18.23
2023-05-12T19:12:34.911Z,23.10
2023-05-12T19:15:03.041Z,30.67
2023-05-12T19:17:30.644Z,30.23
2023-05-12T19:19:58.323Z,24.25
2023-05-12T19:22:26.870Z,23.00
2023-05-12T19:24:56.119Z,17.67
2023-05-12T19:27:23.885Z,24.95
2023-05-12T19:29:51.582Z,18.52
2023-05-12T19:32:19.170Z,25.02
2023-05-12T19:34:51.497Z,22.83
2023-05-12T19:37:20.605Z,14.32
2023-05-12T19:39:48.541Z,17.98
2023-05-12T19:42:16.334Z,13.43
2023-05-12T19:44:44.250Z,22.10
2023-05-12T19:47:13.101Z,24.58
2023-05-12T19:49:40.724Z,20.08
2023-05-12T19:52:09.149Z,22.83
2023-05-12T19:54:37.456Z,19.48
2023-05-12T19:57:05.349Z,16.77
2023-05-12T19:59:33.589Z,20.08
2023-05-12T20:02:01.383Z,40.00
2023-05-12T20:04:29.322Z,39.85
2023-05-12T20:06:57.749Z,24.35
2023-05-12T20:09:26.306Z,24.48
2023-05-12T20:11:54.124Z,51.17
2023-05-12T20:14:21.883Z,27.02
2023-05-12T20:16:49.582Z,28.75
2023-05-12T20:19:17.866Z,26.35
2023-05-12T20:21:45.733Z,22.92
2023-05-12T20:24:13.679Z,20.30
2023-05-12T20:26:41.445Z,20.05
2023-05-12T20:29:09.411Z,20.00
2023-05-12T20:31:37.560Z,24.35
2023-05-12T20:34:05.329Z,21.67
2023-05-12T20:36:33.237Z,24.58
2023-05-12T20:39:00.858Z,21.30
2023-05-12T20:41:28.636Z,12.88
2023-05-12T20:43:56.597Z,20.05
2023-05-12T20:46:25.221Z,20.77
2023-05-12T20:48:53.065Z,15.50
2023-05-12T20:51:21.303Z,15.18
2023-05-12T20:53:49.133Z,21.05
2023-05-12T20:56:17.050Z,14.45
2023-05-12T20:58:44.886Z,14.13
2023-05-12T21:01:12.838Z,16.02
2023-05-12T21:03:40.666Z,10.73
2023-05-12T21:06:08.816Z,16.65
2023-05-12T21:08:36.470Z,12.30
2023-05-12T21:11:04.325Z,9.82
2023-05-12T21:13:32.010Z,14.85
2023-05-12T21:16:00.401Z,19.27
2023-05-12T21:18:28.305Z,15.27
2023-05-12T21:20:55.799Z,17.67
2023-05-12T21:23:23.403Z,11.13
2023-05-12T21:25:54.124Z,8.43
2023-05-12T21:28:22.421Z,13.10
2023-05-12T21:30:49.997Z,12.80
2023-05-12T21:33:17.782Z,12.45
2023-05-12T21:35:45.939Z,11.75
2023-05-12T21:38:14.107Z,11.48
2023-05-12T21:40:42.106Z,9.20
2023-05-12T21:43:09.720Z,12.35
2023-05-12T21:45:37.548Z,12.63
2023-05-12T21:48:05.943Z,13.70
2023-05-12T21:50:33.832Z,9.93
2023-05-12T21:53:01.640Z,13.00
2023-05-12T21:55:29.293Z,9.00
2023-05-12T21:57:56.872Z,13.88
2023-05-12T22:00:24.820Z,11.75
2023-05-12T22:02:52.633Z,9.07
2023-05-12T22:05:20.362Z,11.63
2023-05-12T22:07:48.752Z,12.07
2023-05-12T22:10:17.016Z,12.15
2023-05-12T22:12:45.987Z,9.68
2023-05-12T22:15:13.943Z,8.38
2023-05-12T22:17:41.703Z,8.90
2023-05-12T22:20:10.503Z,8.57
2023-05-12T22:22:38.585Z,15.48
2023-05-12T22:25:07.028Z,12.68
2023-05-12T22:27:34.892Z,8.73
2023-05-12T22:30:02.862Z,10.73
2023-05-12T22:32:30.726Z,13.13
2023-05-12T22:34:58.320Z,10.35
2023-05-12T22:37:26.395Z,9.82
2023-05-12T22:39:54.186Z,10.52
2023-05-12T22:42:22.470Z,6.82
2023-05-12T22:44:51.193Z,15.65
2023-05-12T22:47:19.128Z,11.32
2023-05-12T22:49:50.286Z,12.63
2023-05-12T22:52:18.113Z,11.95
2023-05-12T22:54:45.889Z,16.88
2023-05-12T22:57:13.670Z,22.45
2023-05-12T22:59:41.355Z,16.58
2023-05-12T23:02:09.021Z,16.42
2023-05-12T23:04:36.757Z,17.60
2023-05-12T23:07:05.853Z,17.20
2023-05-12T23:09:34.877Z,16.85
2023-05-12T23:12:06.605Z,23.73
2023-05-12T23:14:34.451Z,17.13
2023-05-12T23:17:02.233Z,15.20
2023-05-12T23:19:30.263Z,22.20
2023-05-12T23:21:57.813Z,15.98
2023-05-12T23:24:25.570Z,18.50
2023-05-12T23:26:53.474Z,16.52
2023-05-12T23:29:21.069Z,15.80
2023-05-12T23:31:48.747Z,16.60
2023-05-12T23:34:16.417Z,13.38
2023-05-12T23:36:43.963Z,15.13
2023-05-12T23:39:11.699Z,12.13
2023-05-12T23:41:39.301Z,13.10
2023-05-12T23:44:07.304Z,9.82
2023-05-12T23:46:34.799Z,12.23
2023-05-12T23:49:02.550Z,13.93
2023-05-12T23:51:30.498Z,10.02
2023-05-12T23:53:58.112Z,11.63
2023-05-12T23:56:25.686Z,9.77
2023-05-12T23:58:53.358Z,10.18
